createdAt,value
2018-07-04T00:00:59.273Z,17.70
2018-07-04T00:03:44.256Z,17.79
2018-07-04T00:06:29.107Z,17.86
2018-07-04T00:09:14.078Z,17.99
2018-07-04T00:11:59.032Z,18.13
2018-07-04T00:14:44.064Z,18.18
2018-07-04T00:17:28.996Z,18.24
2018-07-04T00:20:13.970Z,18.18
2018-07-04T00:22:59.010Z,18.12
2018-07-04T00:25:43.916Z,18.13
2018-07-04T00:28:28.818Z,17.95
2018-07-04T00:31:13.704Z,17.96
2018-07-04T00:33:58.743Z,18.12
2018-07-04T00:36:52.907Z,18.12
2018-07-04T00:42:28.824Z,17.90
2018-07-04T00:45:13.848Z,18.00
2018-07-04T00:47:58.830Z,17.79
2018-07-04T00:50:43.744Z,17.65
2018-07-04T00:53:28.589Z,17.73
2018-07-04T00:56:13.600Z,17.73
2018-07-04T00:58:58.497Z,17.73
2018-07-04T01:01:43.679Z,17.75
2018-07-04T01:04:28.606Z,17.68
2018-07-04T01:07:13.523Z,17.66
2018-07-04T01:09:58.347Z,17.52
2018-07-04T01:12:43.461Z,17.54
2018-07-04T01:15:28.268Z,17.47
2018-07-04T01:18:13.282Z,17.21
2018-07-04T01:21:03.663Z,16.61
2018-07-04T01:23:48.825Z,16.44
2018-07-04T01:26:34.408Z,16.37
2018-07-04T01:29:19.479Z,16.21
2018-07-04T01:32:04.296Z,16.12
2018-07-04T01:34:49.269Z,16.02
2018-07-04T01:37:34.038Z,16.28
2018-07-04T01:40:19.125Z,16.27
2018-07-04T01:43:03.956Z,16.44
2018-07-04T01:45:48.864Z,16.55
2018-07-04T01:48:33.733Z,16.69
2018-07-04T01:51:18.780Z,16.67
2018-07-04T01:54:03.616Z,16.82
2018-07-04T01:56:48.485Z,16.86
2018-07-04T01:59:33.417Z,16.84
2018-07-04T02:02:18.375Z,16.87
2018-07-04T02:05:03.320Z,16.96
2018-07-04T02:07:48.376Z,17.03
2018-07-04T02:10:33.207Z,17.06
2018-07-04T02:13:18.147Z,16.91
2018-07-04T02:16:03.132Z,16.63
2018-07-04T02:18:48.128Z,16.63
2018-07-04T02:21:32.872Z,16.75
2018-07-04T02:24:17.963Z,16.86
2018-07-04T02:27:03.031Z,16.95
2018-07-04T02:29:47.989Z,16.87
2018-07-04T02:32:32.792Z,16.82
2018-07-04T02:35:17.705Z,16.81
2018-07-04T02:38:02.618Z,16.87
2018-07-04T02:40:47.631Z,16.88
2018-07-04T02:43:32.697Z,17.02
2018-07-04T02:46:23.217Z,16.99
2018-07-04T02:49:08.220Z,17.02
2018-07-04T02:51:53.339Z,16.99
2018-07-04T02:54:38.178Z,16.95
2018-07-04T02:57:23.143Z,17.04
2018-07-04T03:00:07.903Z,17.15
2018-07-04T03:02:52.846Z,16.94
2018-07-04T03:05:37.834Z,16.69
2018-07-04T03:08:22.857Z,16.75
2018-07-04T03:11:07.668Z,16.92
2018-07-04T03:13:52.617Z,16.84
2018-07-04T03:16:37.629Z,16.79
2018-07-04T03:19:22.633Z,16.76
2018-07-04T03:25:12.827Z,16.77
2018-07-04T03:27:57.707Z,16.92
2018-07-04T03:30:42.692Z,17.06
2018-07-04T03:33:27.520Z,17.12
2018-07-04T03:36:12.549Z,17.12
2018-07-04T03:38:57.521Z,17.25
2018-07-04T03:41:42.753Z,17.30
2018-07-04T03:44:27.605Z,17.33
